createdAt,value
2023-02-03T00:02:25.226Z,6.40
2023-02-03T00:04:52.783Z,6.15
2023-02-03T00:07:20.552Z,5.57
2023-02-03T00:09:47.955Z,5.93
2023-02-03T00:12:15.474Z,5.50
2023-02-03T00:14:42.853Z,5.80
2023-02-03T00:17:10.179Z,4.88
2023-02-03T00:19:37.495Z,4.72
2023-02-03T00:22:04.900Z,4.35
2023-02-03T00:24:32.374Z,3.90
2023-02-03T00:26:59.857Z,3.53
2023-02-03T00:29:28.135Z,3.25
2023-02-03T00:31:55.777Z,3.42
2023-02-03T00:34:23.462Z,2.85
2023-02-03T00:36:51.009Z,3.67
2023-02-03T00:39:18.331Z,3.17
2023-02-03T00:41:47.245Z,2.80
2023-02-03T00:44:15.143Z,2.50
2023-02-03T00:46:45.568Z,2.45
2023-02-03T00:49:12.927Z,2.10
2023-02-03T00:51:40.495Z,2.30
2023-02-03T00:54:08.165Z,1.65
2023-02-03T00:56:35.601Z,1.85
2023-02-03T00:59:03.179Z,1.80
2023-02-03T01:01:32.074Z,1.75
2023-02-03T01:04:00.174Z,1.58
2023-02-03T01:06:28.737Z,1.40
2023-02-03T01:08:56.220Z,1.30
2023-02-03T01:11:29.974Z,1.30
2023-02-03T01:14:01.816Z,1.27
2023-02-03T01:16:46.913Z,1.38
2023-02-03T01:19:14.986Z,1.23
2023-02-03T01:21:42.588Z,1.10
2023-02-03T01:24:10.086Z,1.38
2023-02-03T01:26:39.594Z,1.25
2023-02-03T01:29:08.449Z,0.70
2023-02-03T01:31:39.995Z,0.93
2023-02-03T01:34:13.359Z,1.17
2023-02-03T01:36:41.207Z,0.90
2023-02-03T01:39:08.603Z,0.90
2023-02-03T01:41:38.593Z,1.02
2023-02-03T01:44:43.064Z,0.88
2023-02-03T01:47:19.518Z,0.68
2023-02-03T01:50:19.949Z,0.95
2023-02-03T01:52:58.668Z,0.80
2023-02-03T01:55:32.093Z,0.77
2023-02-03T01:58:16.622Z,1.00
2023-02-03T02:00:44.605Z,0.80
2023-02-03T02:03:13.613Z,1.15
2023-02-03T02:05:50.468Z,1.10
2023-02-03T02:08:22.356Z,0.80
2023-02-03T02:10:50.594Z,0.90
2023-02-03T02:13:20.270Z,0.95
2023-02-03T02:16:03.339Z,0.90
2023-02-03T02:19:06.279Z,0.68
2023-02-03T02:22:01.840Z,1.17
2023-02-03T02:25:29.914Z,1.00
2023-02-03T02:28:18.805Z,0.88
2023-02-03T02:31:02.061Z,0.90
2023-02-03T02:33:43.264Z,0.80
2023-02-03T02:37:08.001Z,0.85
2023-02-03T02:40:19.119Z,0.90
2023-02-03T02:43:21.841Z,1.35
2023-02-03T02:45:54.226Z,1.17
2023-02-03T02:48:46.752Z,0.93
2023-02-03T02:51:15.938Z,1.42
2023-02-03T02:53:52.930Z,1.10
2023-02-03T02:56:22.538Z,1.40
2023-02-03T02:58:51.371Z,1.10
2023-02-03T03:01:19.511Z,1.20
2023-02-03T03:03:47.015Z,1.13
2023-02-03T03:06:26.623Z,1.00
2023-02-03T03:09:05.006Z,1.20
2023-02-03T03:11:43.270Z,1.00
2023-02-03T03:14:15.876Z,1.33
2023-02-03T03:16:51.511Z,1.20
2023-02-03T03:19:25.807Z,1.02
2023-02-03T03:22:01.809Z,1.30
2023-02-03T03:24:35.407Z,1.02
2023-02-03T03:27:13.639Z,1.35
2023-02-03T03:30:11.355Z,1.23
2023-02-03T03:32:39.489Z,1.23
2023-02-03T03:35:08.138Z,1.10
2023-02-03T03:37:57.367Z,1.40
2023-02-03T03:40:38.760Z,1.10
2023-02-03T03:43:20.587Z,1.17
2023-02-03T03:45:58.389Z,1.00
2023-02-03T03:48:37.599Z,1.45
2023-02-03T03:51:49.647Z,1.05
2023-02-03T03:54:22.268Z,1.17
2023-02-03T03:57:15.667Z,1.00
2023-02-03T03:59:48.751Z,1.20
2023-02-03T04:02:19.127Z,1.33
2023-02-03T04:04:48.406Z,1.20
2023-02-03T04:07:16.362Z,0.88
2023-02-03T04:09:43.948Z,1.10
2023-02-03T04:12:23.275Z,1.02
2023-02-03T04:14:50.854Z,1.00
2023-02-03T04:17:20.400Z,1.23
2023-02-03T04:19:49.084Z,1.10
2023-02-03T04:22:16.509Z,1.10
2023-02-03T04:24:44.127Z,1.00
2023-02-03T04:27:11.502Z,1.70
2023-02-03T04:29:38.921Z,0.93
2023-02-03T04:32:06.372Z,0.90
2023-02-03T04:34:34.061Z,1.10
2023-02-03T04:37:01.642Z,1.23
2023-02-03T04:39:29.341Z,1.20
2023-02-03T04:41:57.297Z,1.13
2023-02-03T04:44:24.802Z,1.00
2023-02-03T04:46:52.212Z,0.98
2023-02-03T04:49:31.716Z,1.20
2023-02-03T04:51:59.345Z,1.27
2023-02-03T04:54:26.942Z,1.33
2023-02-03T04:56:54.343Z,1.95
2023-02-03T04:59:21.823Z,1.75
2023-02-03T05:01:49.273Z,1.33
2023-02-03T05:04:16.876Z,1.40
2023-02-03T05:06:44.458Z,1.40
2023-02-03T05:09:11.870Z,1.30
2023-02-03T05:11:39.636Z,1.30
2023-02-03T05:14:08.050Z,1.30
2023-02-03T05:16:35.624Z,1.30
2023-02-03T05:19:03.237Z,1.13
2023-02-03T05:21:30.697Z,1.00
2023-02-03T05:23:58.360Z,1.30
2023-02-03T05:26:28.394Z,1.38
2023-02-03T05:28:57.673Z,1.80
2023-02-03T05:31:25.708Z,1.20
2023-02-03T05:33:53.308Z,1.20
2023-02-03T05:36:20.938Z,1.17
2023-02-03T05:38:50.698Z,1.50
2023-02-03T05:41:36.555Z,1.42
2023-02-03T05:44:04.342Z,1.42
2023-02-03T05:46:31.847Z,1.65
2023-02-03T05:49:02.123Z,1.20
2023-02-03T05:51:29.633Z,1.55
2023-02-03T05:53:58.711Z,2.13
2023-02-03T05:56:26.526Z,1.85
2023-02-03T05:58:53.954Z,2.28
2023-02-03T06:01:21.447Z,1.90
2023-02-03T06:03:49.364Z,2.17
2023-02-03T06:06:17.966Z,1.90
2023-02-03T06:08:45.557Z,1.92
2023-02-03T06:11:12.945Z,2.40
2023-02-03T06:13:40.506Z,2.45
2023-02-03T06:16:08.195Z,2.13
2023-02-03T06:18:37.497Z,2.50
2023-02-03T06:21:05.375Z,1.70
2023-02-03T06:23:32.854Z,2.00
2023-02-03T06:26:03.153Z,1.70
2023-02-03T06:28:30.662Z,1.85
2023-02-03T06:30:58.227Z,2.13
2023-02-03T06:33:26.000Z,1.90
2023-02-03T06:35:54.950Z,2.15
2023-02-03T06:38:22.384Z,3.33
2023-02-03T06:40:49.997Z,2.30
2023-02-03T06:43:17.741Z,2.53
2023-02-03T06:45:48.134Z,1.80
2023-02-03T06:48:16.191Z,2.42
2023-02-03T06:50:46.436Z,2.50
2023-02-03T06:53:14.807Z,2.58
2023-02-03T06:55:44.250Z,2.13
2023-02-03T06:58:11.640Z,3.03
2023-02-03T07:00:39.000Z,1.88
2023-02-03T07:03:06.452Z,1.70
2023-02-03T07:05:36.967Z,2.72
2023-02-03T07:08:04.594Z,2.00
2023-02-03T07:10:32.244Z,1.75
2023-02-03T07:13:07.471Z,1.80
2023-02-03T07:15:35.683Z,1.98
2023-02-03T07:18:03.119Z,1.52
2023-02-03T07:20:32.581Z,2.15
2023-02-03T07:23:02.669Z,1.50
2023-02-03T07:25:31.160Z,1.75
2023-02-03T07:27:58.547Z,1.50
2023-02-03T07:30:29.333Z,1.88
2023-02-03T07:32:57.214Z,2.22
2023-02-03T07:35:25.469Z,2.03
2023-02-03T07:37:53.633Z,1.67
2023-02-03T07:40:21.330Z,1.90
2023-02-03T07:42:50.263Z,3.03
2023-02-03T07:45:19.022Z,1.58
2023-02-03T07:47:46.474Z,1.70
2023-02-03T07:50:13.830Z,1.67
2023-02-03T07:52:41.339Z,1.55
2023-02-03T07:55:09.690Z,1.90
2023-02-03T07:57:37.446Z,1.35
2023-02-03T08:00:07.526Z,1.58
2023-02-03T08:02:44.215Z,1.50
2023-02-03T08:05:13.004Z,1.50
2023-02-03T08:07:41.265Z,1.40
2023-02-03T08:10:11.348Z,1.27
2023-02-03T08:12:39.147Z,1.48
2023-02-03T08:15:07.650Z,1.00
2023-02-03T08:17:35.373Z,1.08
2023-02-03T08:20:02.919Z,1.00
2023-02-03T08:22:31.006Z,1.13
2023-02-03T08:24:58.457Z,0.98
2023-02-03T08:27:26.459Z,1.00
2023-02-03T08:29:56.529Z,0.90
2023-02-03T08:32:27.598Z,1.30
2023-02-03T08:34:55.345Z,1.35
2023-02-03T08:37:28.472Z,0.82
2023-02-03T08:40:00.201Z,0.98
2023-02-03T08:42:28.412Z,0.88
2023-02-03T08:44:56.393Z,0.70
2023-02-03T08:47:24.458Z,0.70
2023-02-03T08:49:52.103Z,0.85
2023-02-03T08:52:19.955Z,0.70
2023-02-03T08:54:48.308Z,0.88
2023-02-03T08:57:16.267Z,0.80
2023-02-03T08:59:45.959Z,0.77
2023-02-03T09:02:19.454Z,0.60
2023-02-03T09:04:49.322Z,0.95
2023-02-03T09:07:17.090Z,1.48
2023-02-03T09:09:45.933Z,0.70
2023-02-03T09:12:13.586Z,0.75
2023-02-03T09:14:41.310Z,0.73
2023-02-03T09:17:10.139Z,0.60
2023-02-03T09:19:37.937Z,0.70
2023-02-03T09:22:05.944Z,0.52
2023-02-03T09:24:33.955Z,0.98
2023-02-03T09:27:01.611Z,0.50
2023-02-03T09:29:29.270Z,0.60
2023-02-03T09:31:56.905Z,0.57
2023-02-03T09:34:24.590Z,0.60
2023-02-03T09:36:52.244Z,0.80
2023-02-03T09:39:19.900Z,0.50
2023-02-03T09:42:34.113Z,0.80
2023-02-03T09:45:20.723Z,0.98
2023-02-03T09:47:54.277Z,0.80
2023-02-03T09:50:26.010Z,1.00
2023-02-03T09:52:54.746Z,1.00
2023-02-03T09:55:35.966Z,3.92
2023-02-03T09:58:18.598Z,4.75
2023-02-03T10:01:02.884Z,5.82
2023-02-03T10:04:02.414Z,8.55
2023-02-03T10:06:36.653Z,8.00
2023-02-03T10:09:28.707Z,8.03
2023-02-03T10:12:20.159Z,8.70
2023-02-03T10:15:16.083Z,9.38
2023-02-03T10:18:10.579Z,8.70
2023-02-03T10:21:30.720Z,8.25
2023-02-03T10:23:59.581Z,6.93
2023-02-03T10:26:29.640Z,6.88
2023-02-03T10:29:07.239Z,6.22
2023-02-03T10:31:37.662Z,4.93
2023-02-03T10:34:15.303Z,4.80
2023-02-03T10:36:48.426Z,4.30
2023-02-03T10:39:50.011Z,4.18
2023-02-03T10:42:22.375Z,3.13
2023-02-03T10:45:00.576Z,3.22
2023-02-03T10:47:38.394Z,3.20
2023-02-03T10:50:22.603Z,3.47
2023-02-03T10:52:50.363Z,3.05
2023-02-03T10:55:38.155Z,2.72
2023-02-03T10:58:23.352Z,2.03
2023-02-03T11:00:59.296Z,2.08
2023-02-03T11:03:29.765Z,2.00
2023-02-03T11:06:17.922Z,2.15
2023-02-03T11:08:48.780Z,2.08
2023-02-03T11:11:29.258Z,1.83
2023-02-03T11:14:17.397Z,1.67
2023-02-03T11:16:47.446Z,2.22
2023-02-03T11:19:21.230Z,1.92
2023-02-03T11:21:56.692Z,2.03
2023-02-03T11:24:33.769Z,1.90
2023-02-03T11:27:18.777Z,2.00
2023-02-03T11:30:17.283Z,1.95
2023-02-03T11:32:47.225Z,2.53
2023-02-03T11:35:23.918Z,2.20
2023-02-03T11:37:58.691Z,2.10
2023-02-03T11:40:30.471Z,1.77
2023-02-03T11:42:58.019Z,2.03
2023-02-03T11:45:42.259Z,2.95
2023-02-03T11:48:39.084Z,1.67
2023-02-03T11:51:49.190Z,9.55
2023-02-03T11:54:31.041Z,18.95
2023-02-03T11:57:28.711Z,21.75
2023-02-03T12:00:18.063Z,21.75
2023-02-03T12:03:12.296Z,21.40
2023-02-03T12:06:13.121Z,23.55
2023-02-03T12:08:55.991Z,25.98
2023-02-03T12:12:00.310Z,21.42
2023-02-03T12:15:18.814Z,22.88
2023-02-03T12:18:26.684Z,22.70
2023-02-03T12:21:44.438Z,20.60
2023-02-03T12:24:43.570Z,20.70
2023-02-03T12:27:33.171Z,18.42
2023-02-03T12:30:14.898Z,16.38
2023-02-03T12:32:47.950Z,16.20
2023-02-03T12:35:39.582Z,17.90
2023-02-03T12:38:35.032Z,14.15
2023-02-03T12:41:19.320Z,15.80
2023-02-03T12:43:50.918Z,12.93
2023-02-03T12:46:31.675Z,13.18
2023-02-03T12:49:40.571Z,14.10
2023-02-03T12:52:23.728Z,12.02
2023-02-03T12:55:22.764Z,11.07
2023-02-03T12:58:07.672Z,11.85
2023-02-03T13:00:59.035Z,10.75
2023-02-03T13:03:52.201Z,10.15
2023-02-03T13:06:31.197Z,9.48
2023-02-03T13:09:38.266Z,9.00
2023-02-03T13:12:50.607Z,10.45
2023-02-03T13:15:33.224Z,8.00
2023-02-03T13:18:29.822Z,7.07
2023-02-03T13:20:57.728Z,9.15
2023-02-03T13:23:28.861Z,7.50
2023-02-03T13:26:20.460Z,8.40
2023-02-03T13:29:19.484Z,6.95
2023-02-03T13:32:07.566Z,7.10
2023-02-03T13:35:24.786Z,7.18
2023-02-03T13:38:40.035Z,6.00
2023-02-03T13:41:52.636Z,6.82
2023-02-03T13:44:28.671Z,6.63
2023-02-03T13:46:59.517Z,6.35
2023-02-03T13:49:34.511Z,6.47
2023-02-03T13:52:02.648Z,7.07
2023-02-03T13:54:43.936Z,6.35
2023-02-03T13:57:28.796Z,6.93
2023-02-03T13:59:56.379Z,5.05
2023-02-03T14:02:42.532Z,5.68
2023-02-03T14:05:44.793Z,5.95
2023-02-03T14:08:26.858Z,4.80
2023-02-03T14:11:34.682Z,5.13
2023-02-03T14:14:08.015Z,4.93
2023-02-03T14:16:50.013Z,4.13
2023-02-03T14:19:33.575Z,5.10
2023-02-03T14:22:10.180Z,5.00
2023-02-03T14:24:44.583Z,4.38
2023-02-03T14:27:28.199Z,4.45
2023-02-03T14:30:15.561Z,4.88
2023-02-03T14:33:00.150Z,4.25
2023-02-03T14:35:37.361Z,3.97
2023-02-03T14:38:14.334Z,4.60
2023-02-03T14:41:05.172Z,3.95
2023-02-03T14:44:01.799Z,4.22
2023-02-03T14:47:09.713Z,3.75
2023-02-03T14:49:43.450Z,3.95
2023-02-03T14:52:46.286Z,3.17
2023-02-03T14:55:52.193Z,3.65
2023-02-03T14:58:36.079Z,3.53
2023-02-03T15:01:08.534Z,3.15
2023-02-03T15:03:38.050Z,4.18
2023-02-03T15:06:06.480Z,6.72
2023-02-03T15:08:47.697Z,7.15
2023-02-03T15:11:45.070Z,6.25
2023-02-03T15:14:27.994Z,6.13
2023-02-03T15:17:01.595Z,6.35
2023-02-03T15:19:39.712Z,6.25
2023-02-03T15:22:20.805Z,5.53
2023-02-03T15:24:51.173Z,5.38
2023-02-03T15:27:25.743Z,5.00
2023-02-03T15:29:54.501Z,4.82
2023-02-03T15:32:37.036Z,4.60
2023-02-03T15:35:11.590Z,4.50
2023-02-03T15:38:18.593Z,4.65
2023-02-03T15:40:53.517Z,4.25
2023-02-03T15:43:42.751Z,5.15
2023-02-03T15:46:29.710Z,3.75
2023-02-03T15:49:01.165Z,4.57
2023-02-03T15:51:37.351Z,4.20
2023-02-03T15:54:14.970Z,3.83
2023-02-03T15:57:01.221Z,4.28
2023-02-03T15:59:38.719Z,4.28
2023-02-03T16:02:18.178Z,3.95
2023-02-03T16:04:46.796Z,3.70
2023-02-03T16:07:29.903Z,4.05
2023-02-03T16:10:00.080Z,3.85
2023-02-03T16:12:29.697Z,5.05
2023-02-03T16:14:59.865Z,3.03
2023-02-03T16:17:41.704Z,3.58
2023-02-03T16:20:12.349Z,3.33
2023-02-03T16:23:00.702Z,4.82
2023-02-03T16:25:32.112Z,4.40
2023-02-03T16:28:35.692Z,6.68
2023-02-03T16:31:37.753Z,7.22
2023-02-03T16:34:36.950Z,9.10
2023-02-03T16:37:42.802Z,8.80
2023-02-03T16:40:37.691Z,9.13
2023-02-03T16:43:24.462Z,10.13
2023-02-03T16:46:15.614Z,9.05
2023-02-03T16:49:01.635Z,7.60
2023-02-03T16:51:39.749Z,7.97
2023-02-03T16:54:10.837Z,7.60
2023-02-03T16:56:38.718Z,7.55
2023-02-03T16:59:06.623Z,7.88
2023-02-03T17:01:34.284Z,6.28
2023-02-03T17:04:02.751Z,7.07
2023-02-03T17:06:30.982Z,6.47
2023-02-03T17:08:59.219Z,6.15
2023-02-03T17:11:27.410Z,5.72
2023-02-03T17:13:54.993Z,5.28
2023-02-03T17:16:25.518Z,5.22
2023-02-03T17:18:53.922Z,5.53
2023-02-03T17:21:26.191Z,5.43
2023-02-03T17:23:53.874Z,4.63
2023-02-03T17:26:21.802Z,5.15
2023-02-03T17:28:49.419Z,5.15
2023-02-03T17:31:20.078Z,5.20
2023-02-03T17:33:53.698Z,8.93
2023-02-03T17:36:22.122Z,22.05
2023-02-03T17:55:33.262Z,128.20
2023-02-03T17:58:01.292Z,119.30
2023-02-03T18:00:29.115Z,111.32
2023-02-03T18:02:57.752Z,99.05
2023-02-03T18:05:25.543Z,95.75
2023-02-03T18:07:53.089Z,84.72
2023-02-03T18:10:21.806Z,79.80
2023-02-03T18:12:49.584Z,71.10
2023-02-03T18:15:17.215Z,69.28
2023-02-03T18:17:44.824Z,67.82
2023-02-03T18:20:13.766Z,64.25
2023-02-03T18:22:41.301Z,62.08
2023-02-03T18:25:09.828Z,57.95
2023-02-03T18:27:37.413Z,55.10
2023-02-03T18:30:05.567Z,51.65
2023-02-03T18:32:32.980Z,48.38
2023-02-03T18:35:01.071Z,47.75
2023-02-03T18:37:28.862Z,42.40
2023-02-03T18:39:56.273Z,39.58
2023-02-03T18:42:23.789Z,40.05
2023-02-03T18:44:51.466Z,37.63
2023-02-03T18:47:18.952Z,34.53
2023-02-03T18:49:48.182Z,34.47
2023-02-03T18:52:16.003Z,33.42
2023-02-03T18:54:43.580Z,30.67
2023-02-03T18:57:14.222Z,28.25
2023-02-03T18:59:42.200Z,28.25
2023-02-03T19:02:11.493Z,27.02
2023-02-03T19:04:38.994Z,27.35
2023-02-03T19:07:06.856Z,26.05
2023-02-03T19:09:34.928Z,25.30
2023-02-03T19:12:03.279Z,24.15
2023-02-03T19:14:30.908Z,23.00
2023-02-03T19:16:58.572Z,22.05
2023-02-03T19:19:29.283Z,20.80
2023-02-03T19:21:58.680Z,22.50
2023-02-03T19:24:27.440Z,19.88
2023-02-03T19:26:55.287Z,19.38
2023-02-03T19:29:23.091Z,19.80
2023-02-03T19:31:51.888Z,18.20
2023-02-03T19:34:19.471Z,18.92
2023-02-03T19:36:50.035Z,17.10
2023-02-03T19:39:18.865Z,16.25
2023-02-03T19:41:49.573Z,15.32
2023-02-03T19:44:17.035Z,16.40
2023-02-03T19:46:44.650Z,15.30
2023-02-03T19:49:13.609Z,14.70
2023-02-03T19:51:45.182Z,13.85
2023-02-03T19:54:15.687Z,13.52
2023-02-03T19:56:44.453Z,13.52
2023-02-03T19:59:12.078Z,12.73
2023-02-03T20:01:39.735Z,12.65
2023-02-03T20:04:07.785Z,11.98
2023-02-03T20:06:35.714Z,11.43
2023-02-03T20:09:04.445Z,10.82
2023-02-03T20:11:32.122Z,10.65
2023-02-03T20:13:59.901Z,11.07
2023-02-03T20:16:30.706Z,9.55
2023-02-03T20:19:01.339Z,9.93
2023-02-03T20:21:28.862Z,10.23
2023-02-03T20:23:56.297Z,10.80
2023-02-03T20:26:24.542Z,13.07
2023-02-03T20:28:52.275Z,14.52
2023-02-03T20:31:20.151Z,14.85
2023-02-03T20:33:47.999Z,15.15
2023-02-03T20:36:15.584Z,15.85
2023-02-03T20:38:43.363Z,14.38
2023-02-03T20:41:12.938Z,14.65
2023-02-03T20:43:40.972Z,13.32
2023-02-03T20:46:16.458Z,14.07
2023-02-03T20:48:44.755Z,13.23
2023-02-03T20:51:14.786Z,13.27
2023-02-03T20:53:52.787Z,15.50
2023-02-03T20:56:22.077Z,18.13
2023-02-03T20:58:49.724Z,17.13
2023-02-03T21:01:22.759Z,16.88
2023-02-03T21:04:09.093Z,15.68
2023-02-03T21:06:37.069Z,13.38
2023-02-03T21:09:20.227Z,14.45
2023-02-03T21:11:47.696Z,13.15
2023-02-03T21:14:22.668Z,11.77
2023-02-03T21:16:51.451Z,12.23
2023-02-03T21:19:29.722Z,12.40
2023-02-03T21:21:57.942Z,11.55
2023-02-03T21:24:36.889Z,10.05
2023-02-03T21:27:23.211Z,14.05
2023-02-03T21:29:55.847Z,24.15
2023-02-03T21:32:31.530Z,25.70
2023-02-03T21:35:03.353Z,26.05
2023-02-03T21:37:40.117Z,22.95
2023-02-03T21:40:34.942Z,22.00
2023-02-03T21:43:03.539Z,17.05
2023-02-03T21:45:38.676Z,16.88
2023-02-03T21:48:40.638Z,17.67
2023-02-03T21:51:26.737Z,16.40
2023-02-03T21:54:24.194Z,15.02
2023-02-03T21:56:52.022Z,14.43
2023-02-03T21:59:33.663Z,12.60
2023-02-03T22:02:06.693Z,14.25
2023-02-03T22:04:34.427Z,12.40
2023-02-03T22:07:02.017Z,12.77
2023-02-03T22:09:29.722Z,11.48
2023-02-03T22:11:57.396Z,10.60
2023-02-03T22:14:25.080Z,10.88
2023-02-03T22:16:52.842Z,12.60
2023-02-03T22:19:22.796Z,15.65
2023-02-03T22:21:51.593Z,18.33
2023-02-03T22:24:19.037Z,22.00
2023-02-03T22:26:46.402Z,22.58
2023-02-03T22:29:13.843Z,24.20
2023-02-03T22:31:42.955Z,25.25
2023-02-03T22:34:10.535Z,25.05
2023-02-03T22:36:38.339Z,25.67
2023-02-03T22:39:06.027Z,27.85
2023-02-03T22:41:33.371Z,26.77
2023-02-03T22:44:00.890Z,27.38
2023-02-03T22:46:28.580Z,27.42
2023-02-03T22:48:56.240Z,24.75
2023-02-03T22:51:23.816Z,24.70
2023-02-03T22:53:51.339Z,25.08
2023-02-03T22:56:18.801Z,23.67
2023-02-03T22:58:46.172Z,22.27
2023-02-03T23:01:14.053Z,21.52
2023-02-03T23:03:41.536Z,20.50
2023-02-03T23:06:08.775Z,20.08
2023-02-03T23:08:36.165Z,20.02
2023-02-03T23:11:03.800Z,17.80
2023-02-03T23:13:31.473Z,16.88
2023-02-03T23:15:59.119Z,15.85
2023-02-03T23:18:26.644Z,18.50
2023-02-03T23:20:54.359Z,16.08
2023-02-03T23:23:22.111Z,14.93
2023-02-03T23:25:49.708Z,13.45
2023-02-03T23:28:17.354Z,12.55
2023-02-03T23:30:45.064Z,12.45
2023-02-03T23:33:12.758Z,11.57
2023-02-03T23:35:46.655Z,10.65
2023-02-03T23:38:18.350Z,10.55
2023-02-03T23:40:45.972Z,9.40
2023-02-03T23:43:13.925Z,9.73
2023-02-03T23:45:41.593Z,8.15
2023-02-03T23:48:09.525Z,8.43
2023-02-03T23:50:37.183Z,8.13
2023-02-03T23:53:05.055Z,8.05
2023-02-03T23:55:32.522Z,6.68
2023-02-03T23:58:00.036Z,6.68
